sensor_id;sensor_type;location;lat;lon;timestamp;temperature;humidity
49148;DHT22;41980;45.550;12.070;2023-03-01T00:04:01;4.20;60.60
49148;DHT22;41980;45.550;12.070;2023-03-01T00:10:03;4.20;60.60
49148;DHT22;41980;45.550;12.070;2023-03-01T00:16:06;4.10;61.10
49148;DHT22;41980;45.550;12.070;2023-03-01T00:22:08;4.10;60.90
49148;DHT22;41980;45.550;12.070;2023-03-01T00:28:10;4.00;60.60
49148;DHT22;41980;45.550;12.070;2023-03-01T00:34:12;4.00;60.70
49148;DHT22;41980;45.550;12.070;2023-03-01T00:40:14;4.00;61.30
49148;DHT22;41980;45.550;12.070;2023-03-01T00:46:20;3.90;61.40
49148;DHT22;41980;45.550;12.070;2023-03-01T00:52:22;4.00;61.60
49148;DHT22;41980;45.550;12.070;2023-03-01T00:58:24;4.00;62.60
49148;DHT22;41980;45.550;12.070;2023-03-01T01:04:26;3.90;62.30
49148;DHT22;41980;45.550;12.070;2023-03-01T01:10:28;4.00;62.30
49148;DHT22;41980;45.550;12.070;2023-03-01T01:16:30;4.00;62.00
49148;DHT22;41980;45.550;12.070;2023-03-01T01:22:32;4.10;62.10
49148;DHT22;41980;45.550;12.070;2023-03-01T01:28:34;4.20;61.90
49148;DHT22;41980;45.550;12.070;2023-03-01T01:34:36;4.30;61.70
49148;DHT22;41980;45.550;12.070;2023-03-01T01:40:43;4.50;62.10
49148;DHT22;41980;45.550;12.070;2023-03-01T01:46:52;4.50;61.50
49148;DHT22;41980;45.550;12.070;2023-03-01T01:52:55;4.70;61.70
49148;DHT22;41980;45.550;12.070;2023-03-01T01:58:57;4.70;61.60
49148;DHT22;41980;45.550;12.070;2023-03-01T02:05:05;4.70;61.50
49148;DHT22;41980;45.550;12.070;2023-03-01T02:11:13;4.60;62.10
49148;DHT22;41980;45.550;12.070;2023-03-01T02:17:17;4.70;61.90
49148;DHT22;41980;45.550;12.070;2023-03-01T02:23:20;4.70;62.10
49148;DHT22;41980;45.550;12.070;2023-03-01T02:29:23;4.70;61.80
49148;DHT22;41980;45.550;12.070;2023-03-01T02:35:25;4.70;61.80
49148;DHT22;41980;45.550;12.070;2023-03-01T02:41:28;4.70;62.30
49148;DHT22;41980;45.550;12.070;2023-03-01T02:47:32;4.70;61.80
49148;DHT22;41980;45.550;12.070;2023-03-01T02:59:40;4.90;61.70
49148;DHT22;41980;45.550;12.070;2023-03-01T03:05:44;4.90;61.60
49148;DHT22;41980;45.550;12.070;2023-03-01T03:11:46;4.80;61.60
49148;DHT22;41980;45.550;12.070;2023-03-01T03:17:50;4.70;61.80
49148;DHT22;41980;45.550;12.070;2023-03-01T03:23:52;4.70;62.40
49148;DHT22;41980;45.550;12.070;2023-03-01T03:29:54;4.50;61.70
49148;DHT22;41980;45.550;12.070;2023-03-01T03:35:56;4.50;61.80
49148;DHT22;41980;45.550;12.070;2023-03-01T03:41:58;4.50;62.10
49148;DHT22;41980;45.550;12.070;2023-03-01T03:48:01;4.50;62.30
49148;DHT22;41980;45.550;12.070;2023-03-01T03:54:03;4.60;61.90
49148;DHT22;41980;45.550;12.070;2023-03-01T04:00:06;4.70;61.90
49148;DHT22;41980;45.550;12.070;2023-03-01T04:06:14;4.70;61.90
49148;DHT22;41980;45.550;12.070;2023-03-01T04:12:16;4.70;62.40
49148;DHT22;41980;45.550;12.070;2023-03-01T04:18:23;4.80;61.90
49148;DHT22;41980;45.550;12.070;2023-03-01T04:24:26;4.80;62.30
49148;DHT22;41980;45.550;12.070;2023-03-01T04:30:28;4.80;62.30
49148;DHT22;41980;45.550;12.070;2023-03-01T04:36:30;4.90;62.40
49148;DHT22;41980;45.550;12.070;2023-03-01T04:42:32;4.90;61.90
49148;DHT22;41980;45.550;12.070;2023-03-01T04:48:35;4.90;62.60
49148;DHT22;41980;45.550;12.070;2023-03-01T04:54:37;5.00;62.10
49148;DHT22;41980;45.550;12.070;2023-03-01T05:00:39;5.10;61.60
49148;DHT22;41980;45.550;12.070;2023-03-01T05:06:40;5.10;61.50
49148;DHT22;41980;45.550;12.070;2023-03-01T05:12:42;5.20;61.50
49148;DHT22;41980;45.550;12.070;2023-03-01T05:18:44;5.30;61.60
49148;DHT22;41980;45.550;12.070;2023-03-01T05:24:47;5.40;61.60
49148;DHT22;41980;45.550;12.070;2023-03-01T05:30:49;5.50;61.60
49148;DHT22;41980;45.550;12.070;2023-03-01T05:36:54;5.70;61.30
49148;DHT22;41980;45.550;12.070;2023-03-01T05:42:56;5.70;61.50
49148;DHT22;41980;45.550;12.070;2023-03-01T05:48:58;5.70;61.80
49148;DHT22;41980;45.550;12.070;2023-03-01T05:55:01;5.80;61.40
49148;DHT22;41980;45.550;12.070;2023-03-01T06:01:04;5.70;61.50
49148;DHT22;41980;45.550;12.070;2023-03-01T06:07:06;5.70;61.50
49148;DHT22;41980;45.550;12.070;2023-03-01T06:13:08;5.70;61.60
49148;DHT22;41980;45.550;12.070;2023-03-01T06:19:09;5.70;61.50
49148;DHT22;41980;45.550;12.070;2023-03-01T06:25:14;5.80;61.70
49148;DHT22;41980;45.550;12.070;2023-03-01T06:31:16;5.80;61.50
49148;DHT22;41980;45.550;12.070;2023-03-01T06:37:19;5.90;61.90
49148;DHT22;41980;45.550;12.070;2023-03-01T06:43:22;6.00;61.30
49148;DHT22;41980;45.550;12.070;2023-03-01T06:49:25;6.00;61.60
49148;DHT22;41980;45.550;12.070;2023-03-01T06:55:27;6.00;61.40
49148;DHT22;41980;45.550;12.070;2023-03-01T07:01:30;6.10;61.50
49148;DHT22;41980;45.550;12.070;2023-03-01T07:07:32;6.20;61.40
49148;DHT22;41980;45.550;12.070;2023-03-01T07:13:34;6.30;61.20
49148;DHT22;41980;45.550;12.070;2023-03-01T07:19:35;6.50;61.00
49148;DHT22;41980;45.550;12.070;2023-03-01T07:25:37;6.90;60.70
49148;DHT22;41980;45.550;12.070;2023-03-01T07:31:39;7.50;60.50
49148;DHT22;41980;45.550;12.070;2023-03-01T07:37:41;8.00;59.10
49148;DHT22;41980;45.550;12.070;2023-03-01T07:43:43;8.20;58.30
49148;DHT22;41980;45.550;12.070;2023-03-01T07:49:45;8.40;58.00
49148;DHT22;41980;45.550;12.070;2023-03-01T07:55:47;8.50;56.80
49148;DHT22;41980;45.550;12.070;2023-03-01T08:01:49;8.50;57.10
49148;DHT22;41980;45.550;12.070;2023-03-01T08:07:51;8.50;56.50
49148;DHT22;41980;45.550;12.070;2023-03-01T08:13:53;8.50;57.00
49148;DHT22;41980;45.550;12.070;2023-03-01T08:19:55;8.80;55.90
49148;DHT22;41980;45.550;12.070;2023-03-01T08:32:02;9.20;55.00
49148;DHT22;41980;45.550;12.070;2023-03-01T08:38:04;9.30;54.60
49148;DHT22;41980;45.550;12.070;2023-03-01T08:44:06;9.40;54.30
49148;DHT22;41980;45.550;12.070;2023-03-01T08:50:09;9.50;53.40
49148;DHT22;41980;45.550;12.070;2023-03-01T08:56:11;9.70;53.60
49148;DHT22;41980;45.550;12.070;2023-03-01T09:02:16;10.10;54.20
49148;DHT22;41980;45.550;12.070;2023-03-01T09:08:19;10.80;53.10
49148;DHT22;41980;45.550;12.070;2023-03-01T09:14:21;11.40;50.60
49148;DHT22;41980;45.550;12.070;2023-03-01T09:20:23;11.70;51.40
49148;DHT22;41980;45.550;12.070;2023-03-01T09:26:25;11.90;51.70
49148;DHT22;41980;45.550;12.070;2023-03-01T09:32:29;11.90;50.20
49148;DHT22;41980;45.550;12.070;2023-03-01T09:38:31;11.90;48.70
49148;DHT22;41980;45.550;12.070;2023-03-01T09:50:41;12.30;46.70
49148;DHT22;41980;45.550;12.070;2023-03-01T09:56:53;12.40;46.40
49148;DHT22;41980;45.550;12.070;2023-03-01T10:09:05;12.40;46.30
49148;DHT22;41980;45.550;12.070;2023-03-01T10:15:14;12.50;46.30
49148;DHT22;41980;45.550;12.070;2023-03-01T10:21:19;12.20;46.30
49148;DHT22;41980;45.550;12.070;2023-03-01T10:27:29;11.90;47.10
49148;DHT22;41980;45.550;12.070;2023-03-01T10:33:37;11.80;47.00
49148;DHT22;41980;45.550;12.070;2023-03-01T10:45:50;11.60;47.00
49148;DHT22;41980;45.550;12.070;2023-03-01T10:51:53;11.40;47.50
49148;DHT22;41980;45.550;12.070;2023-03-01T10:58:08;11.20;48.10
49148;DHT22;41980;45.550;12.070;2023-03-01T11:04:13;11.20;48.10
49148;DHT22;41980;45.550;12.070;2023-03-01T11:22:31;10.30;52.00
49148;DHT22;41980;45.550;12.070;2023-03-01T11:28:37;10.40;51.10
49148;DHT22;41980;45.550;12.070;2023-03-01T12:29:59;10.60;50.40
49148;DHT22;41980;45.550;12.070;2023-03-01T12:42:18;10.60;50.30
49148;DHT22;41980;45.550;12.070;2023-03-01T12:54:33;10.30;52.20
49148;DHT22;41980;45.550;12.070;2023-03-01T13:06:54;10.40;52.40
49148;DHT22;41980;45.550;12.070;2023-03-01T13:13:08;10.40;52.40
49148;DHT22;41980;45.550;12.070;2023-03-01T13:19:17;10.50;52.10
49148;DHT22;41980;45.550;12.070;2023-03-01T13:25:20;10.40;52.30
49148;DHT22;41980;45.550;12.070;2023-03-01T13:37:31;10.30;52.40
49148;DHT22;41980;45.550;12.070;2023-03-01T13:43:36;10.30;52.60
49148;DHT22;41980;45.550;12.070;2023-03-01T13:49:43;10.30;52.20
49148;DHT22;41980;45.550;12.070;2023-03-01T13:55:50;10.30;52.10
49148;DHT22;41980;45.550;12.070;2023-03-01T14:01:57;10.30;52.30
49148;DHT22;41980;45.550;12.070;2023-03-01T14:08:00;10.40;52.30
49148;DHT22;41980;45.550;12.070;2023-03-01T14:26:21;10.30;52.80
49148;DHT22;41980;45.550;12.070;2023-03-01T14:32:26;10.30;52.80
49148;DHT22;41980;45.550;12.070;2023-03-01T14:44:34;10.30;52.90
49148;DHT22;41980;45.550;12.070;2023-03-01T14:50:42;10.40;52.90
49148;DHT22;41980;45.550;12.070;2023-03-01T14:56:46;10.50;52.90
49148;DHT22;41980;45.550;12.070;2023-03-01T15:02:51;10.50;52.80
49148;DHT22;41980;45.550;12.070;2023-03-01T15:08:54;10.50;52.80
49148;DHT22;41980;45.550;12.070;2023-03-01T15:14:58;10.40;52.80
49148;DHT22;41980;45.550;12.070;2023-03-01T15:21:05;10.40;52.90
49148;DHT22;41980;45.550;12.070;2023-03-01T15:45:34;9.80;57.10
49148;DHT22;41980;45.550;12.070;2023-03-01T15:51:39;9.60;58.00
49148;DHT22;41980;45.550;12.070;2023-03-01T15:57:41;9.40;59.40
49148;DHT22;41980;45.550;12.070;2023-03-01T16:03:43;9.00;62.60
49148;DHT22;41980;45.550;12.070;2023-03-01T16:09:52;8.50;64.70
49148;DHT22;41980;45.550;12.070;2023-03-01T16:15:54;8.10;67.60
49148;DHT22;41980;45.550;12.070;2023-03-01T16:21:56;7.90;73.00
49148;DHT22;41980;45.550;12.070;2023-03-01T16:27:58;7.60;71.30
49148;DHT22;41980;45.550;12.070;2023-03-01T16:34:02;7.50;70.40
49148;DHT22;41980;45.550;12.070;2023-03-01T16:40:06;7.40;71.30
49148;DHT22;41980;45.550;12.070;2023-03-01T16:46:17;7.40;72.00
49148;DHT22;41980;45.550;12.070;2023-03-01T16:52:21;7.30;71.50
49148;DHT22;41980;45.550;12.070;2023-03-01T16:58:23;7.30;71.70
49148;DHT22;41980;45.550;12.070;2023-03-01T17:04:26;7.30;72.90
49148;DHT22;41980;45.550;12.070;2023-03-01T17:10:28;7.30;73.00
49148;DHT22;41980;45.550;12.070;2023-03-01T17:16:30;7.20;73.20
49148;DHT22;41980;45.550;12.070;2023-03-01T17:22:32;7.20;74.10
49148;DHT22;41980;45.550;12.070;2023-03-01T17:28:35;7.20;74.00
49148;DHT22;41980;45.550;12.070;2023-03-01T17:34:37;7.10;74.80
49148;DHT22;41980;45.550;12.070;2023-03-01T17:40:40;7.00;76.10
49148;DHT22;41980;45.550;12.070;2023-03-01T17:46:43;7.00;77.50
49148;DHT22;41980;45.550;12.070;2023-03-01T17:52:45;6.90;77.10
49148;DHT22;41980;45.550;12.070;2023-03-01T17:58:47;6.90;78.20
49148;DHT22;41980;45.550;12.070;2023-03-01T18:04:49;6.90;78.70
49148;DHT22;41980;45.550;12.070;2023-03-01T18:10:58;6.90;78.90
49148;DHT22;41980;45.550;12.070;2023-03-01T18:17:00;6.90;79.40
49148;DHT22;41980;45.550;12.070;2023-03-01T18:23:06;6.90;79.70
49148;DHT22;41980;45.550;12.070;2023-03-01T18:29:09;7.00;80.40
49148;DHT22;41980;45.550;12.070;2023-03-01T18:35:11;7.00;80.00
49148;DHT22;41980;45.550;12.070;2023-03-01T18:41:13;7.00;79.20
49148;DHT22;41980;45.550;12.070;2023-03-01T18:47:15;7.00;79.50
49148;DHT22;41980;45.550;12.070;2023-03-01T18:53:17;7.00;79.30
49148;DHT22;41980;45.550;12.070;2023-03-01T18:59:19;7.10;79.70
49148;DHT22;41980;45.550;12.070;2023-03-01T19:05:21;7.10;79.50
49148;DHT22;41980;45.550;12.070;2023-03-01T19:11:24;7.20;79.70
49148;DHT22;41980;45.550;12.070;2023-03-01T19:17:28;7.30;79.30
49148;DHT22;41980;45.550;12.070;2023-03-01T19:23:32;7.40;79.00
49148;DHT22;41980;45.550;12.070;2023-03-01T19:29:37;7.50;79.30
49148;DHT22;41980;45.550;12.070;2023-03-01T19:35:39;7.50;79.10
49148;DHT22;41980;45.550;12.070;2023-03-01T19:41:42;7.50;78.90
49148;DHT22;41980;45.550;12.070;2023-03-01T19:47:46;7.50;78.50
49148;DHT22;41980;45.550;12.070;2023-03-01T19:53:49;7.60;79.20
49148;DHT22;41980;45.550;12.070;2023-03-01T19:59:50;7.60;78.40
49148;DHT22;41980;45.550;12.070;2023-03-01T20:05:53;7.70;78.20
49148;DHT22;41980;45.550;12.070;2023-03-01T20:11:55;7.60;77.50
49148;DHT22;41980;45.550;12.070;2023-03-01T20:17:57;7.60;77.70
49148;DHT22;41980;45.550;12.070;2023-03-01T20:23:59;7.60;78.50
49148;DHT22;41980;45.550;12.070;2023-03-01T20:30:01;7.60;78.40
49148;DHT22;41980;45.550;12.070;2023-03-01T20:36:04;7.60;77.90
49148;DHT22;41980;45.550;12.070;2023-03-01T20:42:06;7.60;77.90
49148;DHT22;41980;45.550;12.070;2023-03-01T20:48:08;7.60;77.90
49148;DHT22;41980;45.550;12.070;2023-03-01T20:54:10;7.70;78.10
49148;DHT22;41980;45.550;12.070;2023-03-01T21:00:13;7.70;78.60
49148;DHT22;41980;45.550;12.070;2023-03-01T21:06:15;7.70;78.50
49148;DHT22;41980;45.550;12.070;2023-03-01T21:12:17;7.70;78.30
49148;DHT22;41980;45.550;12.070;2023-03-01T21:18:19;7.70;78.40
49148;DHT22;41980;45.550;12.070;2023-03-01T21:24:21;7.80;78.50
49148;DHT22;41980;45.550;12.070;2023-03-01T21:30:23;7.80;79.00
49148;DHT22;41980;45.550;12.070;2023-03-01T21:36:27;7.80;77.60
49148;DHT22;41980;45.550;12.070;2023-03-01T21:42:29;7.90;78.00
49148;DHT22;41980;45.550;12.070;2023-03-01T21:48:33;7.90;77.10
49148;DHT22;41980;45.550;12.070;2023-03-01T21:54:35;7.90;78.00
49148;DHT22;41980;45.550;12.070;2023-03-01T22:00:37;8.00;76.80
49148;DHT22;41980;45.550;12.070;2023-03-01T22:06:42;8.00;76.70
49148;DHT22;41980;45.550;12.070;2023-03-01T22:12:44;8.10;76.10
49148;DHT22;41980;45.550;12.070;2023-03-01T22:18:47;8.10;76.40
49148;DHT22;41980;45.550;12.070;2023-03-01T22:24:49;8.10;76.10
49148;DHT22;41980;45.550;12.070;2023-03-01T22:30:52;8.10;76.50
49148;DHT22;41980;45.550;12.070;2023-03-01T22:36:54;8.00;77.20
49148;DHT22;41980;45.550;12.070;2023-03-01T22:42:57;8.00;76.20
49148;DHT22;41980;45.550;12.070;2023-03-01T22:48:59;8.00;76.20
49148;DHT22;41980;45.550;12.070;2023-03-01T22:55:01;8.00;75.80
49148;DHT22;41980;45.550;12.070;2023-03-01T23:07:13;8.00;76.00
49148;DHT22;41980;45.550;12.070;2023-03-01T23:13:15;8.10;75.70
49148;DHT22;41980;45.550;12.070;2023-03-01T23:19:17;8.10;75.30
49148;DHT22;41980;45.550;12.070;2023-03-01T23:25:19;8.20;75.50
49148;DHT22;41980;45.550;12.070;2023-03-01T23:31:21;8.20;74.80
49148;DHT22;41980;45.550;12.070;2023-03-01T23:37:28;8.20;74.70
49148;DHT22;41980;45.550;12.070;2023-03-01T23:43:30;8.20;74.50
49148;DHT22;41980;45.550;12.070;2023-03-01T23:49:33;8.20;74.40
49148;DHT22;41980;45.550;12.070;2023-03-01T23:55:36;8.20;74.30
